sensor_id;sensor_type;location;lat;lon;timestamp;pressure;altitude;pressure_sealevel;temperature;humidity
64713;BME280;51140;45.340;5.980;2023-10-31T00:00:15;97267.50;;;9.87;97.53
64713;BME280;51140;45.340;5.980;2023-10-31T00:02:41;97272.03;;;9.86;96.97
64713;BME280;51140;45.340;5.980;2023-10-31T00:05:06;97296.56;;;9.97;97.17
64713;BME280;51140;45.340;5.980;2023-10-31T00:07:31;97301.00;;;9.77;100.00
64713;BME280;51140;45.340;5.980;2023-10-31T00:09:57;97301.97;;;9.58;100.00
64713;BME280;51140;45.340;5.980;2023-10-31T00:12:22;97297.84;;;9.03;100.00
64713;BME280;51140;45.340;5.980;2023-10-31T00:14:47;97299.31;;;9.19;100.00
64713;BME280;51140;45.340;5.980;2023-10-31T00:17:13;97292.56;;;9.03;100.00
64713;BME280;51140;45.340;5.980;2023-10-31T00:19:38;97306.75;;;9.17;100.00
64713;BME280;51140;45.340;5.980;2023-10-31T00:22:04;97291.06;;;9.64;94.55
64713;BME280;51140;45.340;5.980;2023-10-31T00:24:30;97300.13;;;9.53;99.50
64713;BME280;51140;45.340;5.980;2023-10-31T00:26:57;97297.03;;;9.46;98.75
64713;BME280;51140;45.340;5.980;2023-10-31T00:29:22;97299.41;;;9.43;100.00
64713;BME280;51140;45.340;5.980;2023-10-31T00:31:47;97301.22;;;9.52;97.26
64713;BME280;51140;45.340;5.980;2023-10-31T00:34:13;97293.28;;;9.81;93.51
64713;BME280;51140;45.340;5.980;2023-10-31T00:36:38;97295.69;;;9.77;96.63
64713;BME280;51140;45.340;5.980;2023-10-31T00:39:04;97319.63;;;9.67;100.00
64713;BME280;51140;45.340;5.980;2023-10-31T00:41:30;97331.91;;;9.53;100.00
64713;BME280;51140;45.340;5.980;2023-10-31T00:43:55;97339.69;;;9.40;100.00
64713;BME280;51140;45.340;5.980;2023-10-31T00:46:21;97336.34;;;9.29;100.00
64713;BME280;51140;45.340;5.980;2023-10-31T00:48:47;97335.13;;;9.11;100.00
64713;BME280;51140;45.340;5.980;2023-10-31T00:51:13;97345.38;;;9.23;100.00
64713;BME280;51140;45.340;5.980;2023-10-31T00:53:38;97355.34;;;9.41;100.00
64713;BME280;51140;45.340;5.980;2023-10-31T00:56:04;97359.03;;;9.40;100.00
64713;BME280;51140;45.340;5.980;2023-10-31T00:58:29;97363.06;;;9.33;100.00
64713;BME280;51140;45.340;5.980;2023-10-31T01:00:55;97367.91;;;9.20;100.00
64713;BME280;51140;45.340;5.980;2023-10-31T01:03:20;97364.97;;;9.27;100.00
64713;BME280;51140;45.340;5.980;2023-10-31T01:05:45;97368.69;;;9.21;100.00
64713;BME280;51140;45.340;5.980;2023-10-31T01:08:11;97373.56;;;9.04;100.00
64713;BME280;51140;45.340;5.980;2023-10-31T01:10:36;97386.16;;;9.22;100.00
64713;BME280;51140;45.340;5.980;2023-10-31T01:13:02;97393.13;;;9.13;100.00
64713;BME280;51140;45.340;5.980;2023-10-31T01:15:28;97390.53;;;8.98;100.00
64713;BME280;51140;45.340;5.980;2023-10-31T01:17:53;97391.06;;;8.95;100.00
64713;BME280;51140;45.340;5.980;2023-10-31T01:20:19;97392.59;;;9.06;100.00
64713;BME280;51140;45.340;5.980;2023-10-31T01:22:44;97388.13;;;9.01;100.00
64713;BME280;51140;45.340;5.980;2023-10-31T01:25:09;97394.19;;;9.02;100.00
64713;BME280;51140;45.340;5.980;2023-10-31T01:27:36;97395.06;;;8.92;100.00
64713;BME280;51140;45.340;5.980;2023-10-31T01:30:01;97404.06;;;8.86;100.00
64713;BME280;51140;45.340;5.980;2023-10-31T01:32:26;97393.38;;;9.11;100.00
64713;BME280;51140;45.340;5.980;2023-10-31T01:34:52;97392.72;;;8.81;100.00
64713;BME280;51140;45.340;5.980;2023-10-31T01:37:17;97386.63;;;8.80;100.00
64713;BME280;51140;45.340;5.980;2023-10-31T01:39:44;97389.47;;;8.99;100.00
64713;BME280;51140;45.340;5.980;2023-10-31T01:42:10;97387.78;;;9.18;100.00
64713;BME280;51140;45.340;5.980;2023-10-31T01:44:38;97384.53;;;9.31;100.00
64713;BME280;51140;45.340;5.980;2023-10-31T01:47:03;97385.59;;;9.30;100.00
64713;BME280;51140;45.340;5.980;2023-10-31T01:49:29;97387.75;;;9.23;100.00
64713;BME280;51140;45.340;5.980;2023-10-31T01:51:54;97407.88;;;9.19;100.00
64713;BME280;51140;45.340;5.980;2023-10-31T01:54:20;97404.03;;;9.45;100.00
64713;BME280;51140;45.340;5.980;2023-10-31T01:56:45;97405.66;;;9.36;100.00
64713;BME280;51140;45.340;5.980;2023-10-31T01:59:11;97403.75;;;8.98;100.00
64713;BME280;51140;45.340;5.980;2023-10-31T02:01:38;97409.63;;;8.90;100.00
64713;BME280;51140;45.340;5.980;2023-10-31T02:04:05;97404.81;;;8.97;100.00
64713;BME280;51140;45.340;5.980;2023-10-31T02:06:30;97401.16;;;8.83;100.00
64713;BME280;51140;45.340;5.980;2023-10-31T02:08:56;97392.88;;;9.04;100.00
64713;BME280;51140;45.340;5.980;2023-10-31T02:11:22;97412.16;;;9.15;100.00
64713;BME280;51140;45.340;5.980;2023-10-31T02:13:47;97424.25;;;9.31;100.00
64713;BME280;51140;45.340;5.980;2023-10-31T02:16:13;97429.28;;;9.28;100.00
64713;BME280;51140;45.340;5.980;2023-10-31T02:18:38;97431.63;;;9.39;100.00
64713;BME280;51140;45.340;5.980;2023-10-31T02:21:03;97432.94;;;9.37;100.00
64713;BME280;51140;45.340;5.980;2023-10-31T02:23:29;97439.66;;;9.24;100.00
64713;BME280;51140;45.340;5.980;2023-10-31T02:25:54;97445.63;;;8.86;100.00
64713;BME280;51140;45.340;5.980;2023-10-31T02:28:19;97431.59;;;8.90;100.00
64713;BME280;51140;45.340;5.980;2023-10-31T02:30:45;97438.78;;;8.75;100.00
64713;BME280;51140;45.340;5.980;2023-10-31T02:33:10;97432.97;;;8.73;100.00
64713;BME280;51140;45.340;5.980;2023-10-31T02:35:36;97436.41;;;8.68;100.00
64713;BME280;51140;45.340;5.980;2023-10-31T02:38:01;97441.16;;;8.81;100.00
64713;BME280;51140;45.340;5.980;2023-10-31T02:40:26;97442.22;;;8.75;100.00
64713;BME280;51140;45.340;5.980;2023-10-31T02:42:52;97440.81;;;8.98;100.00
64713;BME280;51140;45.340;5.980;2023-10-31T02:45:17;97446.66;;;8.95;100.00
64713;BME280;51140;45.340;5.980;2023-10-31T02:47:43;97457.25;;;8.90;100.00
64713;BME280;51140;45.340;5.980;2023-10-31T02:50:09;97458.59;;;8.87;100.00
64713;BME280;51140;45.340;5.980;2023-10-31T02:52:34;97459.88;;;8.95;100.00
64713;BME280;51140;45.340;5.980;2023-10-31T02:54:59;97458.00;;;9.00;100.00
64713;BME280;51140;45.340;5.980;2023-10-31T02:57:25;97455.19;;;8.82;100.00
64713;BME280;51140;45.340;5.980;2023-10-31T02:59:50;97453.59;;;8.81;100.00
64713;BME280;51140;45.340;5.980;2023-10-31T03:02:15;97456.75;;;8.78;100.00
64713;BME280;51140;45.340;5.980;2023-10-31T03:04:41;97458.31;;;8.89;100.00
64713;BME280;51140;45.340;5.980;2023-10-31T03:07:06;97450.38;;;8.89;100.00
64713;BME280;51140;45.340;5.980;2023-10-31T03:09:32;97448.53;;;8.89;100.00
64713;BME280;51140;45.340;5.980;2023-10-31T03:11:57;97447.97;;;8.97;100.00
64713;BME280;51140;45.340;5.980;2023-10-31T03:14:22;97446.66;;;8.95;100.00
64713;BME280;51140;45.340;5.980;2023-10-31T03:16:48;97448.44;;;9.14;100.00
64713;BME280;51140;45.340;5.980;2023-10-31T03:19:13;97444.66;;;9.26;100.00
64713;BME280;51140;45.340;5.980;2023-10-31T03:21:38;97452.34;;;9.22;100.00
64713;BME280;51140;45.340;5.980;2023-10-31T03:24:04;97450.78;;;9.21;100.00
64713;BME280;51140;45.340;5.980;2023-10-31T03:26:30;97450.47;;;9.28;100.00
64713;BME280;51140;45.340;5.980;2023-10-31T03:28:55;97462.91;;;9.32;100.00
64713;BME280;51140;45.340;5.980;2023-10-31T03:31:23;97453.69;;;9.25;100.00
64713;BME280;51140;45.340;5.980;2023-10-31T03:33:48;97469.69;;;8.94;100.00
64713;BME280;51140;45.340;5.980;2023-10-31T03:36:14;97462.47;;;9.05;100.00
64713;BME280;51140;45.340;5.980;2023-10-31T03:38:39;97479.97;;;9.06;100.00
64713;BME280;51140;45.340;5.980;2023-10-31T03:41:04;97474.06;;;9.29;100.00
64713;BME280;51140;45.340;5.980;2023-10-31T03:43:30;97478.28;;;9.25;100.00
64713;BME280;51140;45.340;5.980;2023-10-31T03:45:55;97476.75;;;9.14;100.00
64713;BME280;51140;45.340;5.980;2023-10-31T03:48:21;97475.34;;;9.37;100.00
64713;BME280;51140;45.340;5.980;2023-10-31T03:50:46;97475.34;;;9.37;100.00
64713;BME280;51140;45.340;5.980;2023-10-31T03:53:12;97482.31;;;9.17;100.00
64713;BME280;51140;45.340;5.980;2023-10-31T03:55:37;97483.13;;;9.08;100.00
64713;BME280;51140;45.340;5.980;2023-10-31T03:58:03;97481.78;;;9.10;100.00
64713;BME280;51140;45.340;5.980;2023-10-31T04:00:28;97476.13;;;9.37;100.00
64713;BME280;51140;45.340;5.980;2023-10-31T04:02:55;97480.31;;;9.48;100.00
64713;BME280;51140;45.340;5.980;2023-10-31T04:05:20;97476.25;;;9.12;100.00
64713;BME280;51140;45.340;5.980;2023-10-31T04:07:46;97491.06;;;9.13;100.00
64713;BME280;51140;45.340;5.980;2023-10-31T04:10:12;97492.91;;;9.17;100.00
64713;BME280;51140;45.340;5.980;2023-10-31T04:12:38;97494.66;;;9.42;100.00
64713;BME280;51140;45.340;5.980;2023-10-31T04:15:04;97506.38;;;9.26;100.00
64713;BME280;51140;45.340;5.980;2023-10-31T04:17:30;97510.91;;;9.10;100.00
64713;BME280;51140;45.340;5.980;2023-10-31T04:19:56;97505.31;;;9.22;100.00
64713;BME280;51140;45.340;5.980;2023-10-31T04:22:21;97508.44;;;9.34;100.00
64713;BME280;51140;45.340;5.980;2023-10-31T04:24:46;97506.03;;;9.43;100.00
64713;BME280;51140;45.340;5.980;2023-10-31T04:27:12;97498.34;;;9.46;100.00
64713;BME280;51140;45.340;5.980;2023-10-31T04:29:37;97494.03;;;9.60;100.00
64713;BME280;51140;45.340;5.980;2023-10-31T04:32:03;97496.69;;;9.60;100.00
64713;BME280;51140;45.340;5.980;2023-10-31T04:34:28;97505.25;;;9.37;100.00
64713;BME280;51140;45.340;5.980;2023-10-31T04:36:54;97510.06;;;9.35;100.00
64713;BME280;51140;45.340;5.980;2023-10-31T04:39:19;97495.69;;;9.46;100.00
64713;BME280;51140;45.340;5.980;2023-10-31T04:41:45;97498.88;;;9.43;100.00
64713;BME280;51140;45.340;5.980;2023-10-31T04:44:10;97493.81;;;9.52;100.00
64713;BME280;51140;45.340;5.980;2023-10-31T04:46:35;97498.81;;;9.58;100.00
64713;BME280;51140;45.340;5.980;2023-10-31T04:49:01;97490.66;;;9.45;100.00
64713;BME280;51140;45.340;5.980;2023-10-31T04:51:26;97488.84;;;9.40;100.00
64713;BME280;51140;45.340;5.980;2023-10-31T04:53:52;97496.38;;;9.13;100.00
64713;BME280;51140;45.340;5.980;2023-10-31T04:56:18;97495.84;;;9.16;100.00
64713;BME280;51140;45.340;5.980;2023-10-31T04:58:44;97497.13;;;9.13;100.00
64713;BME280;51140;45.340;5.980;2023-10-31T05:01:13;97494.78;;;9.12;100.00
64713;BME280;51140;45.340;5.980;2023-10-31T05:03:39;97495.59;;;9.02;100.00
64713;BME280;51140;45.340;5.980;2023-10-31T05:06:05;97481.84;;;9.00;100.00
64713;BME280;51140;45.340;5.980;2023-10-31T05:08:31;97491.88;;;9.08;100.00
64713;BME280;51140;45.340;5.980;2023-10-31T05:10:58;97483.59;;;9.25;100.00
64713;BME280;51140;45.340;5.980;2023-10-31T05:13:23;97491.63;;;9.10;100.00
64713;BME280;51140;45.340;5.980;2023-10-31T05:15:49;97488.16;;;9.09;100.00
64713;BME280;51140;45.340;5.980;2023-10-31T05:18:15;97488.97;;;9.10;100.00
64713;BME280;51140;45.340;5.980;2023-10-31T05:20:40;97496.84;;;9.20;100.00
64713;BME280;51140;45.340;5.980;2023-10-31T05:23:06;97483.13;;;9.08;100.00
64713;BME280;51140;45.340;5.980;2023-10-31T05:25:31;97486.06;;;8.96;100.00
64713;BME280;51140;45.340;5.980;2023-10-31T05:27:56;97485.16;;;9.31;100.00
64713;BME280;51140;45.340;5.980;2023-10-31T05:30:22;97490.16;;;9.38;100.00
64713;BME280;51140;45.340;5.980;2023-10-31T05:32:49;97498.72;;;9.19;100.00
64713;BME280;51140;45.340;5.980;2023-10-31T05:35:14;97491.84;;;9.13;100.00
64713;BME280;51140;45.340;5.980;2023-10-31T05:37:40;97498.72;;;9.19;100.00
64713;BME280;51140;45.340;5.980;2023-10-31T05:40:05;97489.88;;;9.39;100.00
64713;BME280;51140;45.340;5.980;2023-10-31T05:42:31;97504.22;;;9.33;100.00
64713;BME280;51140;45.340;5.980;2023-10-31T05:44:56;97513.94;;;9.48;100.00
64713;BME280;51140;45.340;5.980;2023-10-31T05:47:22;97516.16;;;9.31;100.00
64713;BME280;51140;45.340;5.980;2023-10-31T05:49:47;97511.16;;;9.24;100.00
64713;BME280;51140;45.340;5.980;2023-10-31T05:52:13;97503.50;;;9.17;100.00
64713;BME280;51140;45.340;5.980;2023-10-31T05:54:38;97498.91;;;9.38;100.00
64713;BME280;51140;45.340;5.980;2023-10-31T05:57:04;97498.59;;;9.45;100.00
64713;BME280;51140;45.340;5.980;2023-10-31T05:59:29;97506.28;;;9.46;100.00
64713;BME280;51140;45.340;5.980;2023-10-31T06:01:54;97518.22;;;9.44;100.00
64713;BME280;51140;45.340;5.980;2023-10-31T06:04:20;97519.84;;;9.35;100.00
64713;BME280;51140;45.340;5.980;2023-10-31T06:06:45;97529.91;;;9.28;100.00
64713;BME280;51140;45.340;5.980;2023-10-31T06:09:10;97534.44;;;9.22;100.00
64713;BME280;51140;45.340;5.980;2023-10-31T06:11:36;97528.31;;;9.37;100.00
64713;BME280;51140;45.340;5.980;2023-10-31T06:14:01;97539.19;;;9.25;100.00
64713;BME280;51140;45.340;5.980;2023-10-31T06:16:27;97544.50;;;9.30;100.00
64713;BME280;51140;45.340;5.980;2023-10-31T06:18:52;97557.13;;;9.58;100.00
64713;BME280;51140;45.340;5.980;2023-10-31T06:21:17;97559.06;;;9.33;100.00
64713;BME280;51140;45.340;5.980;2023-10-31T06:23:43;97566.47;;;9.36;100.00
64713;BME280;51140;45.340;5.980;2023-10-31T06:26:11;97568.34;;;9.30;100.00
64713;BME280;51140;45.340;5.980;2023-10-31T06:28:37;97568.09;;;9.27;100.00
64713;BME280;51140;45.340;5.980;2023-10-31T06:31:03;97560.88;;;9.42;100.00
64713;BME280;51140;45.340;5.980;2023-10-31T06:33:28;97561.88;;;9.61;100.00
64713;BME280;51140;45.340;5.980;2023-10-31T06:35:54;97566.69;;;9.49;100.00
64713;BME280;51140;45.340;5.980;2023-10-31T06:38:19;97561.91;;;9.51;100.00
64713;BME280;51140;45.340;5.980;2023-10-31T06:40:45;97577.84;;;9.36;100.00
64713;BME280;51140;45.340;5.980;2023-10-31T06:43:10;97592.09;;;9.50;100.00
64713;BME280;51140;45.340;5.980;2023-10-31T06:45:35;97591.63;;;9.33;100.00
64713;BME280;51140;45.340;5.980;2023-10-31T06:48:01;97597.22;;;9.27;100.00
64713;BME280;51140;45.340;5.980;2023-10-31T06:50:27;97596.31;;;9.56;100.00
64713;BME280;51140;45.340;5.980;2023-10-31T06:52:52;97599.53;;;9.48;100.00
64713;BME280;51140;45.340;5.980;2023-10-31T06:55:18;97603.03;;;9.29;100.00
64713;BME280;51140;45.340;5.980;2023-10-31T06:57:43;97595.28;;;9.52;100.00
64713;BME280;51140;45.340;5.980;2023-10-31T07:00:10;97600.03;;;9.50;100.00
64713;BME280;51140;45.340;5.980;2023-10-31T07:02:36;97604.28;;;9.51;100.00
64713;BME280;51140;45.340;5.980;2023-10-31T07:05:02;97600.84;;;9.51;100.00
64713;BME280;51140;45.340;5.980;2023-10-31T07:07:28;97603.97;;;9.68;100.00
64713;BME280;51140;45.340;5.980;2023-10-31T07:09:54;97606.38;;;9.59;100.00
64713;BME280;51140;45.340;5.980;2023-10-31T07:12:19;97614.88;;;9.61;100.00
64713;BME280;51140;45.340;5.980;2023-10-31T07:14:45;97627.00;;;9.67;100.00
64713;BME280;51140;45.340;5.980;2023-10-31T07:17:10;97623.03;;;9.65;100.00
64713;BME280;51140;45.340;5.980;2023-10-31T07:19:35;97626.50;;;9.65;99.36
64713;BME280;51140;45.340;5.980;2023-10-31T07:22:01;97626.47;;;9.75;99.63
64713;BME280;51140;45.340;5.980;2023-10-31T07:24:26;97623.34;;;9.63;98.23
64713;BME280;51140;45.340;5.980;2023-10-31T07:26:53;97620.66;;;9.68;98.83
64713;BME280;51140;45.340;5.980;2023-10-31T07:29:19;97624.28;;;9.88;100.00
64713;BME280;51140;45.340;5.980;2023-10-31T07:31:44;97632.53;;;9.81;99.53
64713;BME280;51140;45.340;5.980;2023-10-31T07:34:09;97633.34;;;9.76;98.11
64713;BME280;51140;45.340;5.980;2023-10-31T07:36:36;97637.06;;;9.81;99.24
64713;BME280;51140;45.340;5.980;2023-10-31T07:39:02;97624.06;;;9.84;99.44
64713;BME280;51140;45.340;5.980;2023-10-31T07:41:29;97626.09;;;9.97;96.76
64713;BME280;51140;45.340;5.980;2023-10-31T07:43:54;97622.38;;;10.03;96.33
64713;BME280;51140;45.340;5.980;2023-10-31T07:46:20;97625.75;;;10.19;95.50
64713;BME280;51140;45.340;5.980;2023-10-31T07:48:45;97628.41;;;10.24;97.76
64713;BME280;51140;45.340;5.980;2023-10-31T07:51:11;97625.25;;;10.17;98.22
64713;BME280;51140;45.340;5.980;2023-10-31T07:53:36;97646.19;;;10.08;97.34
64713;BME280;51140;45.340;5.980;2023-10-31T07:56:02;97647.53;;;10.16;99.14
64713;BME280;51140;45.340;5.980;2023-10-31T07:58:27;97651.75;;;10.12;99.28
64713;BME280;51140;45.340;5.980;2023-10-31T08:00:52;97654.41;;;10.17;100.00
64713;BME280;51140;45.340;5.980;2023-10-31T08:03:18;97650.19;;;10.06;100.00
64713;BME280;51140;45.340;5.980;2023-10-31T08:05:43;97651.53;;;10.03;99.85
64713;BME280;51140;45.340;5.980;2023-10-31T08:08:09;97659.25;;;9.95;98.26
64713;BME280;51140;45.340;5.980;2023-10-31T08:10:34;97669.31;;;10.13;99.25
64713;BME280;51140;45.340;5.980;2023-10-31T08:13:00;97668.44;;;10.22;100.00
64713;BME280;51140;45.340;5.980;2023-10-31T08:15:25;97668.19;;;10.19;100.00
64713;BME280;51140;45.340;5.980;2023-10-31T08:17:51;97660.34;;;10.48;100.00
64713;BME280;51140;45.340;5.980;2023-10-31T08:20:16;97654.47;;;10.56;100.00
64713;BME280;51140;45.340;5.980;2023-10-31T08:22:42;97660.81;;;10.60;100.00
64713;BME280;51140;45.340;5.980;2023-10-31T08:25:10;97667.88;;;10.74;99.93
64713;BME280;51140;45.340;5.980;2023-10-31T08:27:35;97669.25;;;10.67;100.00
64713;BME280;51140;45.340;5.980;2023-10-31T08:30:01;97673.13;;;10.79;100.00
64713;BME280;51140;45.340;5.980;2023-10-31T08:32:27;97663.88;;;10.77;100.00
64713;BME280;51140;45.340;5.980;2023-10-31T08:34:52;97666.66;;;10.57;100.00
64713;BME280;51140;45.340;5.980;2023-10-31T08:37:19;97675.41;;;10.57;100.00
64713;BME280;51140;45.340;5.980;2023-10-31T08:39:44;97682.53;;;10.62;100.00
64713;BME280;51140;45.340;5.980;2023-10-31T08:42:10;97696.06;;;10.65;100.00
64713;BME280;51140;45.340;5.980;2023-10-31T08:44:35;97701.88;;;10.67;100.00
64713;BME280;51140;45.340;5.980;2023-10-31T08:47:03;97720.34;;;10.44;99.92
64713;BME280;51140;45.340;5.980;2023-10-31T08:49:28;97719.22;;;9.81;100.00
64713;BME280;51140;45.340;5.980;2023-10-31T08:51:53;97724.16;;;10.22;100.00
64713;BME280;51140;45.340;5.980;2023-10-31T08:54:19;97719.38;;;10.19;100.00
64713;BME280;51140;45.340;5.980;2023-10-31T08:56:44;97731.06;;;10.08;100.00
64713;BME280;51140;45.340;5.980;2023-10-31T08:59:09;97735.03;;;10.21;100.00
64713;BME280;51140;45.340;5.980;2023-10-31T09:01:35;97744.59;;;10.17;100.00
64713;BME280;51140;45.340;5.980;2023-10-31T09:04:00;97746.94;;;10.28;100.00
64713;BME280;51140;45.340;5.980;2023-10-31T09:06:26;97756.41;;;10.50;100.00
64713;BME280;51140;45.340;5.980;2023-10-31T09:08:51;97757.81;;;10.22;100.00
64713;BME280;51140;45.340;5.980;2023-10-31T09:11:17;97755.19;;;10.17;100.00
64713;BME280;51140;45.340;5.980;2023-10-31T09:13:42;97753.06;;;10.19;100.00
64713;BME280;51140;45.340;5.980;2023-10-31T09:16:08;97745.59;;;10.31;100.00
64713;BME280;51140;45.340;5.980;2023-10-31T09:18:33;97743.16;;;10.45;100.00
64713;BME280;51140;45.340;5.980;2023-10-31T09:20:59;97743.38;;;10.58;100.00
64713;BME280;51140;45.340;5.980;2023-10-31T09:23:25;97759.19;;;10.73;100.00
64713;BME280;51140;45.340;5.980;2023-10-31T09:25:50;97765.06;;;10.65;100.00
64713;BME280;51140;45.340;5.980;2023-10-31T09:28:16;97768.25;;;10.72;100.00
64713;BME280;51140;45.340;5.980;2023-10-31T09:30:42;97768.53;;;10.66;100.00
64713;BME280;51140;45.340;5.980;2023-10-31T09:33:07;97770.44;;;10.50;100.00
64713;BME280;51140;45.340;5.980;2023-10-31T09:35:32;97771.03;;;10.42;100.00
64713;BME280;51140;45.340;5.980;2023-10-31T09:37:58;97769.41;;;10.51;100.00
64713;BME280;51140;45.340;5.980;2023-10-31T09:40:23;97776.78;;;10.64;100.00
64713;BME280;51140;45.340;5.980;2023-10-31T09:42:49;97768.28;;;10.62;100.00
64713;BME280;51140;45.340;5.980;2023-10-31T09:45:15;97769.91;;;10.58;99.73
64713;BME280;51140;45.340;5.980;2023-10-31T09:47:40;97774.53;;;10.27;100.00
64713;BME280;51140;45.340;5.980;2023-10-31T09:50:08;97778.44;;;10.45;100.00
64713;BME280;51140;45.340;5.980;2023-10-31T09:52:35;97781.84;;;10.61;100.00
64713;BME280;51140;45.340;5.980;2023-10-31T09:55:02;97782.31;;;10.73;100.00
64713;BME280;51140;45.340;5.980;2023-10-31T09:57:28;97777.34;;;10.51;100.00
64713;BME280;51140;45.340;5.980;2023-10-31T09:59:53;97784.28;;;10.42;99.13
64713;BME280;51140;45.340;5.980;2023-10-31T10:02:19;97787.94;;;10.56;100.00
64713;BME280;51140;45.340;5.980;2023-10-31T10:04:44;97789.66;;;10.86;100.00
64713;BME280;51140;45.340;5.980;2023-10-31T10:07:15;97800.44;;;11.05;100.00
64713;BME280;51140;45.340;5.980;2023-10-31T10:09:42;97816.06;;;11.11;100.00
64713;BME280;51140;45.340;5.980;2023-10-31T10:12:08;97824.94;;;10.91;100.00
64713;BME280;51140;45.340;5.980;2023-10-31T10:14:38;97835.06;;;10.84;99.03
64713;BME280;51140;45.340;5.980;2023-10-31T10:17:14;97833.50;;;10.83;100.00
64713;BME280;51140;45.340;5.980;2023-10-31T10:19:39;97837.28;;;10.62;100.00
64713;BME280;51140;45.340;5.980;2023-10-31T10:22:05;97846.19;;;10.91;100.00
64713;BME280;51140;45.340;5.980;2023-10-31T10:24:30;97847.50;;;10.94;99.98
64713;BME280;51140;45.340;5.980;2023-10-31T10:26:55;97851.78;;;10.85;99.06
64713;BME280;51140;45.340;5.980;2023-10-31T10:29:21;97849.69;;;10.82;99.86
64713;BME280;51140;45.340;5.980;2023-10-31T10:31:46;97830.00;;;10.88;100.00
64713;BME280;51140;45.340;5.980;2023-10-31T10:34:15;97846.63;;;11.09;100.00
64713;BME280;51140;45.340;5.980;2023-10-31T10:36:47;97844.44;;;11.21;100.00
64713;BME280;51140;45.340;5.980;2023-10-31T10:39:20;97845.91;;;10.98;100.00
64713;BME280;51140;45.340;5.980;2023-10-31T10:41:55;97855.34;;;11.19;100.00
64713;BME280;51140;45.340;5.980;2023-10-31T10:44:31;97849.69;;;11.31;100.00
64713;BME280;51140;45.340;5.980;2023-10-31T10:46:56;97851.06;;;11.23;99.80
64713;BME280;51140;45.340;5.980;2023-10-31T10:49:24;97860.88;;;11.28;100.00
64713;BME280;51140;45.340;5.980;2023-10-31T10:51:58;97867.13;;;11.03;98.22
64713;BME280;51140;45.340;5.980;2023-10-31T10:54:45;97849.41;;;10.88;98.36
64713;BME280;51140;45.340;5.980;2023-10-31T11:00:02;97869.97;;;11.17;100.00
64713;BME280;51140;45.340;5.980;2023-10-31T11:02:29;97872.06;;;11.20;99.81
64713;BME280;51140;45.340;5.980;2023-10-31T11:04:55;97873.25;;;10.99;100.00
64713;BME280;51140;45.340;5.980;2023-10-31T11:07:22;97868.41;;;11.16;99.97
64713;BME280;51140;45.340;5.980;2023-10-31T11:09:49;97863.53;;;11.28;100.00
64713;BME280;51140;45.340;5.980;2023-10-31T11:12:15;97849.50;;;11.61;100.00
64713;BME280;51140;45.340;5.980;2023-10-31T11:14:42;97865.16;;;11.63;100.00
64713;BME280;51140;45.340;5.980;2023-10-31T11:17:18;97853.28;;;11.50;98.57
64713;BME280;51140;45.340;5.980;2023-10-31T11:19:48;97843.22;;;11.47;97.81
64713;BME280;51140;45.340;5.980;2023-10-31T11:22:17;97837.53;;;11.59;99.41
64713;BME280;51140;45.340;5.980;2023-10-31T11:24:43;97840.81;;;11.84;99.92
64713;BME280;51140;45.340;5.980;2023-10-31T11:27:08;97845.06;;;11.85;100.00
64713;BME280;51140;45.340;5.980;2023-10-31T11:29:36;97856.88;;;12.03;100.00
64713;BME280;51140;45.340;5.980;2023-10-31T11:32:02;97858.00;;;11.97;100.00
64713;BME280;51140;45.340;5.980;2023-10-31T11:34:29;97863.34;;;11.53;97.21
64713;BME280;51140;45.340;5.980;2023-10-31T11:37:18;97848.31;;;11.77;96.97
64713;BME280;51140;45.340;5.980;2023-10-31T11:42:38;97852.28;;;11.80;98.17
64713;BME280;51140;45.340;5.980;2023-10-31T11:45:03;97854.53;;;11.96;100.00
64713;BME280;51140;45.340;5.980;2023-10-31T11:47:50;97858.97;;;12.06;99.33
64713;BME280;51140;45.340;5.980;2023-10-31T11:50:15;97860.91;;;12.00;98.69
64713;BME280;51140;45.340;5.980;2023-10-31T11:52:41;97855.03;;;12.03;99.09
64713;BME280;51140;45.340;5.980;2023-10-31T11:55:10;97872.09;;;11.97;99.65
64713;BME280;51140;45.340;5.980;2023-10-31T11:57:36;97876.34;;;11.98;100.00
64713;BME280;51140;45.340;5.980;2023-10-31T12:00:06;97869.38;;;12.02;100.00
64713;BME280;51140;45.340;5.980;2023-10-31T12:02:33;97871.44;;;12.11;100.00
64713;BME280;51140;45.340;5.980;2023-10-31T12:05:08;97862.50;;;12.25;100.00
64713;BME280;51140;45.340;5.980;2023-10-31T12:07:46;97854.78;;;12.29;97.76
64713;BME280;51140;45.340;5.980;2023-10-31T12:10:12;97870.06;;;12.13;96.09
64713;BME280;51140;45.340;5.980;2023-10-31T12:12:46;97873.28;;;12.39;98.44
64713;BME280;51140;45.340;5.980;2023-10-31T12:15:11;97890.72;;;12.26;99.94
64713;BME280;51140;45.340;5.980;2023-10-31T12:17:37;97900.38;;;12.17;98.00
64713;BME280;51140;45.340;5.980;2023-10-31T12:20:06;97908.69;;;12.39;100.00
64713;BME280;51140;45.340;5.980;2023-10-31T12:22:33;97898.53;;;12.18;94.76
64713;BME280;51140;45.340;5.980;2023-10-31T12:25:08;97898.56;;;12.13;97.04
64713;BME280;51140;45.340;5.980;2023-10-31T12:27:49;97897.69;;;11.88;99.29
64713;BME280;51140;45.340;5.980;2023-10-31T12:30:16;97891.03;;;11.91;99.99
64713;BME280;51140;45.340;5.980;2023-10-31T12:32:42;97879.19;;;12.07;100.00
64713;BME280;51140;45.340;5.980;2023-10-31T12:35:14;97866.28;;;12.24;99.85
64713;BME280;51140;45.340;5.980;2023-10-31T12:37:46;97874.59;;;12.41;98.78
64713;BME280;51140;45.340;5.980;2023-10-31T12:40:17;97885.09;;;12.33;97.87
64713;BME280;51140;45.340;5.980;2023-10-31T12:42:43;97888.38;;;12.20;98.98
64713;BME280;51140;45.340;5.980;2023-10-31T12:45:09;97906.50;;;12.18;96.54
64713;BME280;51140;45.340;5.980;2023-10-31T12:47:35;97909.84;;;11.99;98.05
64713;BME280;51140;45.340;5.980;2023-10-31T12:50:14;97893.59;;;11.62;98.52
64713;BME280;51140;45.340;5.980;2023-10-31T12:55:14;97881.50;;;12.14;100.00
64713;BME280;51140;45.340;5.980;2023-10-31T12:57:39;97873.34;;;12.34;99.92
64713;BME280;51140;45.340;5.980;2023-10-31T13:00:05;97878.78;;;12.24;98.64